Flugplatz Lager-Hammelburg (EDFJ)

Hier findest Du alle Informationen zum Flugplatz Lager-Hammelburg (EDFJ).

Informationen für Piloten zum Flugplatz Lager-Hammelburg

Hier findest Du alle relevanten Informationen, die Du als Pilot benötigst, um Lager-Hammelburg anzufliegen.

Flugplatz: Lager-Hammelburg ICAO-Code: EDFJ
Frequenz Turm: 118,425 Mhz GAFOR Gebiet: 54
Frequenz Ground: 118,425 Mhz Mogas: ja
Platzrunde: N 2000 ft Landegebühr: -
Platzhöhe: - Sunrise: 06:09 Uhr UTC
Pisten: 10/28 - 553 m x 30 m, ASPH Sunset: 16:57 Uhr UTC

Flugwetter am Flugplatz Lager-Hammelburg

Die METAR Information stammen aus EDFE (89.84 km entfernt).

METAR Code:
2017/04/03 08:20
EDFE 030820Z 03005KT CAVOK 13/07 Q1025

Temperatur: 9,0 °C Niederschlag: - Wind: 0,9 kt (max.: 5,2 kt in Böen)
Temperatur (min.): 6,7 °C Luftdruck: 1029 hPa Windrichtung: 209 °
Temperatur (max.): 10,0 °C Luftfeuchtigkeit: 82 % Bewölkung: -

Flugschulen am Flugplatz Lager-Hammelburg

Am Flugplatz Lager-Hammelburg gibt es leider keine Flugschule.

Benachbarte Flugplätze und Flugschulen

Es gibt 17 weitere Flugplätze in einem Umkreis von 50 km um den Flugplatz Lager-Hammelburg.

Jetzt anmelden

Passwort vergessen

Umfrage Archiv

Seid Ihr aufgrund von Corona im Jahr 2020 mehr oder weniger geflogen als im Jahr zuvor?

weniger
52.3 %
gleich viel
29 %
mehr
18.7 %
Stimmen: 107 | Diskussion
Anzeige: Roland Aircraft
Statistik Alle Mitglieder

Aktuell sind 56 Besucher online.

Anzeige: VFR Sprechfunk Simulator


Anzeige: Pocket FMS